CheckWX is a tool to help pilots better visualize weather data.  It is not intended as a substitute for an official pre-flight weather briefing.

19:47:11 UTC

KATW METAR
Appleton International Airport
Appleton, Wisconsin, USA
Current

1 hour ago

KATW 191845Z 22004KT 10SM SCT120 M06/M18 A3052
Observed
Feb-19 @ 18:45 UTC
Wind
  • 220° at 4 KTS
Visibility
10 SM
Flight Rules
VFR
Cloud Levels
  • Scattered at 12,000' AGL
Temperature
-6°C / 21°F
Dewpoint
-18°C / -0°F
Humidity
38%
Altimeter
30.52" Hg
Pressure
1033.51 hPa
Previous

2 hours ago

KATW 191745Z 21004KT 10SM SCT120 M07/M17 A3057
Observed
Feb-19 @ 17:45 UTC
Wind
  • 210° at 4 KTS
Visibility
10 SM
Flight Rules
VFR
Cloud Levels
  • Scattered at 12,000' AGL
Temperature
-7°C / 19°F
Dewpoint
-17°C / 1°F
Humidity
45%
Altimeter
30.57" Hg
Pressure
1035.21 hPa
Previous

3 hours ago

KATW 191645Z COR 00000KT 10SM SKC M08/M17 A3058
Observed
Feb-19 @ 16:45 UTC
Visibility
10 SM
Flight Rules
VFR
Cloud Levels
  • Clear skies
Temperature
-8°C / 18°F
Dewpoint
-17°C / 1°F
Humidity
49%
Altimeter
30.58" Hg
Pressure
1035.51 hPa